createdAt,value
2022-09-29T00:00:44.000Z,11.3
2022-09-29T00:01:59.000Z,11.3
2022-09-29T00:03:14.000Z,11.3
2022-09-29T00:04:29.000Z,11.3
2022-09-29T00:05:45.000Z,11.4
2022-09-29T00:07:01.000Z,11.4
2022-09-29T00:08:17.000Z,11.4
2022-09-29T00:09:33.000Z,11.3
2022-09-29T00:10:49.000Z,11.4
2022-09-29T00:12:06.000Z,11.3
2022-09-29T00:13:22.000Z,11.3
2022-09-29T00:14:38.000Z,11.3
2022-09-29T00:15:54.000Z,11.3
2022-09-29T00:17:10.000Z,11.3
2022-09-29T00:18:27.000Z,11.3
2022-09-29T00:19:43.000Z,11.2
2022-09-29T00:20:59.000Z,11.2
2022-09-29T00:22:14.000Z,11.2
2022-09-29T00:23:30.000Z,11.2
2022-09-29T00:24:47.000Z,11.2
2022-09-29T00:26:03.000Z,11.1
2022-09-29T00:27:19.000Z,11
2022-09-29T00:28:35.000Z,11
2022-09-29T00:29:51.000Z,11
2022-09-29T00:31:07.000Z,11
2022-09-29T00:32:22.000Z,11
2022-09-29T00:33:37.000Z,10.9
2022-09-29T00:34:52.000Z,10.8
2022-09-29T00:36:08.000Z,10.8
2022-09-29T00:37:25.000Z,10.7
2022-09-29T00:38:41.000Z,10.6
2022-09-29T00:39:57.000Z,10.5
2022-09-29T00:41:13.000Z,10.5
2022-09-29T00:42:29.000Z,10.5
2022-09-29T00:43:46.000Z,10.6
2022-09-29T00:45:02.000Z,10.6
2022-09-29T00:46:18.000Z,10.6
2022-09-29T00:47:34.000Z,10.6
2022-09-29T00:48:50.000Z,10.6
2022-09-29T00:50:07.000Z,10.6
2022-09-29T00:51:22.000Z,10.5
2022-09-29T00:52:38.000Z,10.4
2022-09-29T00:53:54.000Z,10.5
2022-09-29T00:55:10.000Z,10.5
2022-09-29T00:56:27.000Z,10.5
2022-09-29T00:57:43.000Z,10.5
2022-09-29T00:58:59.000Z,10.4
2022-09-29T01:00:14.000Z,10.4
2022-09-29T01:01:29.000Z,10.4
2022-09-29T01:02:46.000Z,10.5
2022-09-29T01:04:01.000Z,10.4
2022-09-29T01:05:16.000Z,10.4
2022-09-29T01:06:32.000Z,10.4
2022-09-29T01:07:48.000Z,10.3
2022-09-29T01:09:05.000Z,10.4
2022-09-29T01:10:21.000Z,10.4
2022-09-29T01:11:37.000Z,10.4
2022-09-29T01:12:53.000Z,10.4
2022-09-29T01:14:09.000Z,10.4
2022-09-29T01:15:26.000Z,10.4
2022-09-29T01:16:42.000Z,10.4
2022-09-29T01:17:58.000Z,10.3
2022-09-29T01:19:13.000Z,10.3
2022-09-29T01:20:29.000Z,10.3
2022-09-29T01:21:46.000Z,10.3
2022-09-29T01:23:02.000Z,10.1
2022-09-29T01:24:18.000Z,10
2022-09-29T01:25:34.000Z,10
2022-09-29T01:27:24.397Z,10.1
2022-09-29T01:28:07.000Z,10.1
2022-09-29T01:29:23.000Z,10.1
2022-09-29T01:30:38.000Z,10.2
2022-09-29T01:31:53.000Z,10.2
2022-09-29T01:33:08.000Z,10.1
2022-09-29T01:34:24.000Z,10.2
2022-09-29T01:35:40.000Z,10.2
2022-09-29T01:36:56.000Z,10.2
2022-09-29T01:38:12.000Z,10.2
2022-09-29T01:39:39.436Z,10.2
2022-09-29T01:40:45.000Z,10.2
2022-09-29T01:42:01.000Z,10.1
2022-09-29T01:43:17.000Z,10.1
2022-09-29T01:44:33.000Z,10.1
2022-09-29T01:45:49.000Z,10
2022-09-29T01:47:06.000Z,10
2022-09-29T01:48:22.000Z,10
2022-09-29T01:49:38.000Z,10
2022-09-29T01:50:53.000Z,10
2022-09-29T01:52:09.000Z,9.9
2022-09-29T01:53:26.000Z,10
2022-09-29T01:54:42.000Z,9.9
2022-09-29T01:55:58.000Z,9.9
2022-09-29T01:57:14.000Z,9.7
2022-09-29T01:58:30.000Z,9.7
2022-09-29T01:59:46.000Z,9.7
2022-09-29T02:01:01.000Z,9.8
2022-09-29T02:02:17.000Z,9.7
2022-09-29T02:03:33.000Z,9.8
2022-09-29T02:05:21.398Z,9.8
2022-09-29T02:06:06.000Z,9.9
2022-09-29T02:07:22.000Z,9.9
2022-09-29T02:08:38.000Z,10
2022-09-29T02:09:54.000Z,9.9
2022-09-29T02:11:10.000Z,9.9
2022-09-29T02:12:27.000Z,9.9
2022-09-29T02:13:43.000Z,9.9
2022-09-29T02:14:59.000Z,10
2022-09-29T02:16:15.000Z,9.9
2022-09-29T02:17:30.000Z,9.9
2022-09-29T02:18:47.000Z,9.9
2022-09-29T02:20:03.000Z,10
2022-09-29T02:21:19.000Z,9.9
2022-09-29T02:22:35.000Z,9.8
2022-09-29T02:23:51.000Z,9.8
2022-09-29T02:25:08.000Z,9.8
2022-09-29T02:26:23.000Z,9.8
2022-09-29T02:27:38.000Z,9.8
2022-09-29T02:28:53.000Z,9.8
2022-09-29T02:30:08.000Z,9.7
2022-09-29T02:31:25.000Z,9.7
2022-09-29T02:32:40.000Z,9.7
2022-09-29T02:33:55.000Z,9.8
2022-09-29T02:35:11.000Z,9.8
2022-09-29T02:36:27.000Z,9.8
2022-09-29T02:37:44.000Z,9.8
2022-09-29T02:39:00.000Z,9.8
2022-09-29T02:40:16.000Z,9.7
2022-09-29T02:41:32.000Z,9.7
2022-09-29T02:42:48.000Z,9.7
2022-09-29T02:44:05.000Z,9.7
2022-09-29T02:45:21.000Z,9.6
2022-09-29T02:46:37.000Z,9.6
2022-09-29T02:47:53.000Z,9.6
2022-09-29T02:49:09.000Z,9.7
2022-09-29T02:50:25.000Z,9.6
2022-09-29T02:51:41.000Z,9.5
2022-09-29T02:52:57.000Z,9.6
2022-09-29T02:54:13.000Z,9.5
2022-09-29T02:55:29.000Z,9.6
2022-09-29T02:56:46.000Z,9.6
2022-09-29T02:58:02.000Z,9.6
2022-09-29T02:59:17.000Z,9.6
2022-09-29T03:00:32.000Z,9.5
2022-09-29T03:01:48.000Z,9.5
2022-09-29T03:03:05.000Z,9.5
2022-09-29T03:04:21.000Z,9.5
2022-09-29T03:05:37.000Z,9.5
2022-09-29T03:06:53.000Z,9.5
2022-09-29T03:09:01.338Z,9.5
2022-09-29T03:09:26.000Z,9.4
2022-09-29T03:10:42.000Z,9.4
2022-09-29T03:11:58.000Z,9.4
2022-09-29T03:13:14.000Z,9.4
2022-09-29T03:14:30.000Z,9.4
2022-09-29T03:15:47.000Z,9.4
2022-09-29T03:17:02.000Z,9.4
2022-09-29T03:18:18.000Z,9.3
2022-09-29T03:19:34.000Z,9.3
2022-09-29T03:20:50.000Z,9.3
2022-09-29T03:22:07.000Z,9.3
2022-09-29T03:23:23.000Z,9.3
2022-09-29T03:24:39.000Z,9.2
2022-09-29T03:25:54.000Z,9.2
2022-09-29T03:27:09.000Z,9.2
2022-09-29T03:28:25.000Z,9.3
2022-09-29T03:29:40.000Z,9.1
2022-09-29T03:30:56.000Z,9.1
2022-09-29T03:32:11.000Z,9.1
2022-09-29T03:33:35.350Z,9
2022-09-29T03:34:43.000Z,9.1
2022-09-29T03:35:59.000Z,9.1
2022-09-29T03:37:15.000Z,9.1
2022-09-29T03:38:31.000Z,9.1
2022-09-29T03:39:47.000Z,9.1
2022-09-29T03:41:04.000Z,9.1
2022-09-29T03:42:20.000Z,9.1
2022-09-29T03:43:36.000Z,9.1
2022-09-29T03:44:52.000Z,9.1
2022-09-29T03:46:59.283Z,9.1
2022-09-29T03:47:25.000Z,9.1
2022-09-29T03:48:41.000Z,9.1
2022-09-29T03:49:56.000Z,9.1
2022-09-29T03:51:12.000Z,9.1
2022-09-29T03:52:28.000Z,9.2
2022-09-29T03:53:45.000Z,9.2
2022-09-29T03:55:44.652Z,9.2
2022-09-29T03:56:17.000Z,9.2
2022-09-29T03:57:33.000Z,9.1
2022-09-29T03:58:48.000Z,9
2022-09-29T04:00:04.000Z,9
2022-09-29T04:01:20.000Z,9
2022-09-29T04:02:35.000Z,9
2022-09-29T04:03:50.000Z,9
2022-09-29T04:05:06.000Z,9
2022-09-29T04:06:23.000Z,9.1
2022-09-29T04:07:39.000Z,9.1
2022-09-29T04:08:55.000Z,9.1
2022-09-29T04:10:11.000Z,9
2022-09-29T04:11:37.253Z,8.9
2022-09-29T04:12:44.000Z,8.9
2022-09-29T04:14:00.000Z,8.9
2022-09-29T04:15:16.000Z,8.9
2022-09-29T04:16:32.000Z,8.9
2022-09-29T04:17:48.000Z,8.9
2022-09-29T04:19:05.000Z,8.9
2022-09-29T04:20:20.000Z,8.9
2022-09-29T04:21:36.000Z,8.9
2022-09-29T04:22:52.000Z,8.9
2022-09-29T04:24:08.000Z,9
2022-09-29T04:25:25.000Z,9
2022-09-29T04:26:41.000Z,9
2022-09-29T04:27:57.000Z,9
2022-09-29T04:29:12.000Z,9
2022-09-29T04:30:27.000Z,9
2022-09-29T04:31:44.000Z,9
2022-09-29T04:32:59.000Z,9
2022-09-29T04:35:10.836Z,8.9
2022-09-29T04:35:30.000Z,8.9
2022-09-29T04:36:46.000Z,9
2022-09-29T04:38:47.417Z,9
2022-09-29T04:39:19.000Z,9
2022-09-29T04:40:35.000Z,9.1
2022-09-29T04:41:51.000Z,9
2022-09-29T04:43:07.000Z,9
2022-09-29T04:44:23.000Z,9.1
2022-09-29T04:45:40.000Z,9
2022-09-29T04:46:56.000Z,9
2022-09-29T04:48:12.000Z,9
2022-09-29T04:49:39.157Z,9.1
2022-09-29T04:50:43.000Z,9.1
2022-09-29T04:52:00.000Z,9.1
2022-09-29T04:53:16.000Z,9
2022-09-29T04:54:32.000Z,9
2022-09-29T04:55:48.000Z,8.9
2022-09-29T04:57:04.000Z,8.8
2022-09-29T04:58:21.000Z,8.8
2022-09-29T04:59:36.000Z,8.8
2022-09-29T05:00:51.000Z,8.8
2022-09-29T05:02:57.149Z,8.9
2022-09-29T05:03:23.000Z,8.8
2022-09-29T05:04:39.000Z,8.8
2022-09-29T05:05:54.000Z,8.9
2022-09-29T05:07:10.000Z,8.9
2022-09-29T05:08:26.000Z,8.9
2022-09-29T05:09:42.000Z,8.9
2022-09-29T05:10:59.000Z,8.9
2022-09-29T05:12:15.000Z,8.9
2022-09-29T05:13:31.000Z,8.9
2022-09-29T05:14:47.000Z,8.9
2022-09-29T05:16:03.000Z,8.9
2022-09-29T05:17:20.000Z,8.9
2022-09-29T05:18:36.000Z,8.9
2022-09-29T05:19:52.000Z,8.8
2022-09-29T05:21:08.000Z,8.8
2022-09-29T05:22:23.000Z,8.9
2022-09-29T05:23:40.000Z,8.9
2022-09-29T05:24:56.000Z,9
2022-09-29T05:26:12.000Z,9
2022-09-29T05:27:28.000Z,9
2022-09-29T05:28:44.000Z,9
2022-09-29T05:30:01.000Z,9
2022-09-29T05:31:16.000Z,9
2022-09-29T05:32:31.000Z,9
2022-09-29T05:33:46.000Z,9
2022-09-29T05:35:01.000Z,9
2022-09-29T05:36:18.000Z,9.1
2022-09-29T05:37:34.000Z,9.1
2022-09-29T05:38:50.000Z,9.1
2022-09-29T05:40:06.000Z,9.1
2022-09-29T05:41:22.000Z,9.1
2022-09-29T05:42:39.000Z,9
2022-09-29T05:43:55.000Z,9
2022-09-29T05:45:11.000Z,9.1
2022-09-29T05:46:27.000Z,9.1
2022-09-29T05:47:43.000Z,9.1
2022-09-29T05:49:00.000Z,9.1
2022-09-29T05:50:16.000Z,9.1
2022-09-29T05:51:31.000Z,9.2
2022-09-29T05:52:47.000Z,9.1
2022-09-29T05:54:03.000Z,9
2022-09-29T05:55:20.000Z,9
2022-09-29T05:56:36.000Z,9
2022-09-29T05:57:52.000Z,9
2022-09-29T05:59:08.000Z,9
2022-09-29T06:00:23.000Z,9
2022-09-29T06:01:39.000Z,8.9
2022-09-29T06:02:55.000Z,8.9
2022-09-29T06:04:10.000Z,9
2022-09-29T06:05:33.070Z,9
2022-09-29T06:06:41.000Z,9.1
2022-09-29T06:07:58.000Z,9.1
2022-09-29T06:09:14.000Z,9.1
2022-09-29T06:10:30.000Z,9.2
2022-09-29T06:11:46.000Z,9.2
2022-09-29T06:13:02.000Z,9.2
2022-09-29T06:14:19.000Z,9.2
2022-09-29T06:15:35.000Z,9.2
2022-09-29T06:16:51.000Z,9.1
2022-09-29T06:18:07.000Z,9.2
2022-09-29T06:19:23.000Z,9.2
2022-09-29T06:20:40.000Z,9.3
2022-09-29T06:21:55.000Z,9.3
2022-09-29T06:23:11.000Z,9.3
2022-09-29T06:24:27.000Z,9.3
2022-09-29T06:25:43.000Z,9.3
2022-09-29T06:27:00.000Z,9.3
2022-09-29T06:28:16.000Z,9.3
2022-09-29T06:29:32.000Z,9.4
2022-09-29T06:30:47.000Z,9.4
2022-09-29T06:32:02.000Z,9.4
2022-09-29T06:33:19.000Z,9.5
2022-09-29T06:34:34.000Z,9.5
2022-09-29T06:35:49.000Z,9.6
2022-09-29T06:37:05.000Z,10
2022-09-29T06:38:21.000Z,10.8
2022-09-29T06:39:38.000Z,11.9
2022-09-29T06:40:54.000Z,12.8
2022-09-29T06:42:10.000Z,13.6
2022-09-29T06:43:34.964Z,14.3
2022-09-29T06:44:42.000Z,15
2022-09-29T06:45:59.000Z,15.5
2022-09-29T06:47:15.000Z,16
2022-09-29T06:48:31.000Z,16.5
2022-09-29T06:49:47.000Z,16.9
2022-09-29T06:51:03.000Z,17.3
2022-09-29T06:52:18.000Z,17.5
2022-09-29T06:53:35.000Z,17.6
2022-09-29T06:54:51.000Z,17.6
2022-09-29T06:56:56.911Z,18
2022-09-29T06:57:23.000Z,18.3
2022-09-29T06:58:39.000Z,18.6
2022-09-29T06:59:56.000Z,18.8
2022-09-29T07:01:11.000Z,19
2022-09-29T07:02:26.000Z,19.4
2022-09-29T07:03:42.000Z,19.7
2022-09-29T07:04:57.000Z,19.8
2022-09-29T07:06:13.000Z,20
2022-09-29T07:07:29.000Z,20
2022-09-29T07:09:12.931Z,19.5
2022-09-29T07:10:01.000Z,19.6
2022-09-29T07:11:17.000Z,19.7
2022-09-29T07:12:34.000Z,19.9
2022-09-29T07:13:50.000Z,20.3
2022-09-29T07:15:06.000Z,20.1
2022-09-29T07:16:22.000Z,20.1
2022-09-29T07:17:38.000Z,20.1
2022-09-29T07:18:55.000Z,20.1
2022-09-29T07:20:11.000Z,20.1
2022-09-29T07:21:27.000Z,20
2022-09-29T07:22:42.000Z,19.8
2022-09-29T07:23:58.000Z,20.1
2022-09-29T07:25:15.000Z,20.2
2022-09-29T07:26:31.000Z,20.1
2022-09-29T07:27:47.000Z,20.3
2022-09-29T07:29:03.000Z,20.4
2022-09-29T07:30:19.000Z,20.7
2022-09-29T07:31:35.000Z,20.8
2022-09-29T07:32:50.000Z,20.5
2022-09-29T07:34:05.000Z,20.4
2022-09-29T07:35:20.000Z,20.4
2022-09-29T07:36:36.000Z,20.7
2022-09-29T07:37:53.000Z,20.9
2022-09-29T07:39:09.000Z,20.9
2022-09-29T07:40:25.000Z,21.1
2022-09-29T07:41:41.000Z,21.4
2022-09-29T07:42:57.000Z,21.9
2022-09-29T07:44:14.000Z,22
2022-09-29T07:45:30.000Z,22.1
2022-09-29T07:46:46.000Z,22.3
2022-09-29T07:48:02.000Z,22.5
2022-09-29T07:49:18.000Z,22.7
2022-09-29T07:50:35.000Z,23
2022-09-29T07:51:50.000Z,23.3
2022-09-29T07:53:06.000Z,23.6
2022-09-29T07:54:22.000Z,23.7
2022-09-29T07:55:38.000Z,24
2022-09-29T07:56:55.000Z,24.1
2022-09-29T07:58:11.000Z,24
2022-09-29T07:59:27.000Z,24.1
2022-09-29T08:00:42.000Z,24.3
2022-09-29T08:01:57.000Z,24.4
2022-09-29T08:03:13.000Z,24.6
2022-09-29T08:04:28.000Z,24.7
2022-09-29T08:05:43.000Z,24.8
2022-09-29T08:06:58.000Z,24.8
2022-09-29T08:08:15.000Z,24.9
2022-09-29T08:09:31.000Z,25
2022-09-29T08:10:47.000Z,24.9
2022-09-29T08:12:03.000Z,25
2022-09-29T08:13:19.000Z,25.3
2022-09-29T08:14:35.000Z,25.5
2022-09-29T08:15:52.000Z,24.4
2022-09-29T08:17:08.000Z,24.4
2022-09-29T08:18:24.000Z,24.8
2022-09-29T08:19:40.000Z,25.2
2022-09-29T08:20:56.000Z,25.3
2022-09-29T08:22:13.000Z,25.7
2022-09-29T08:23:28.000Z,25.7
2022-09-29T08:24:44.000Z,25.8
2022-09-29T08:26:00.000Z,26.2
2022-09-29T08:27:16.000Z,26.3
2022-09-29T08:28:33.000Z,26.5
2022-09-29T08:29:49.000Z,26.7
2022-09-29T08:31:05.000Z,26.8
2022-09-29T08:32:20.000Z,26.8
2022-09-29T08:33:35.000Z,26.7
2022-09-29T08:34:52.000Z,26.7
2022-09-29T08:36:07.000Z,26.7
2022-09-29T08:37:22.000Z,26.8
2022-09-29T08:38:38.000Z,27
2022-09-29T08:39:54.000Z,27.2
2022-09-29T08:41:11.000Z,27.4
2022-09-29T08:42:27.000Z,27.4
2022-09-29T08:43:43.000Z,27.2
2022-09-29T08:44:59.000Z,27.2
2022-09-29T08:46:15.000Z,27.4
2022-09-29T08:47:32.000Z,27.5
2022-09-29T08:48:48.000Z,27.5
2022-09-29T08:50:04.000Z,27
2022-09-29T08:51:20.000Z,27
2022-09-29T08:52:36.000Z,25.9
2022-09-29T08:53:52.000Z,26
2022-09-29T08:55:08.000Z,26.5
2022-09-29T08:56:24.000Z,26.8
2022-09-29T08:57:40.000Z,27
2022-09-29T08:58:56.000Z,27.1
2022-09-29T09:00:13.000Z,27.4
2022-09-29T09:01:29.000Z,27.7
2022-09-29T09:03:16.679Z,27.9
2022-09-29T09:03:59.000Z,27.8
2022-09-29T09:05:15.000Z,28.2
2022-09-29T09:06:32.000Z,28.4
2022-09-29T09:07:48.000Z,28.7
2022-09-29T09:09:04.000Z,28.5
2022-09-29T09:10:20.000Z,28.2
2022-09-29T09:11:36.000Z,28.6
2022-09-29T09:12:53.000Z,28.3
2022-09-29T09:14:09.000Z,28
2022-09-29T09:15:38.648Z,27.9
2022-09-29T09:16:41.000Z,28.2
2022-09-29T09:17:57.000Z,28.5
2022-09-29T09:19:14.000Z,28.5
2022-09-29T09:20:29.000Z,28.9
2022-09-29T09:21:45.000Z,29.1
2022-09-29T09:23:01.000Z,29.1
2022-09-29T09:24:17.000Z,29
2022-09-29T09:25:34.000Z,29.2
2022-09-29T09:26:50.000Z,29.1
2022-09-29T09:29:00.615Z,28.9
2022-09-29T09:29:21.000Z,29
2022-09-29T09:30:36.000Z,28.9
2022-09-29T09:31:52.000Z,28.8
2022-09-29T09:33:07.000Z,28.9
2022-09-29T09:34:22.000Z,28.9
2022-09-29T09:35:37.000Z,28.4
2022-09-29T09:36:53.000Z,27.8
2022-09-29T09:38:10.000Z,27.3
2022-09-29T09:39:26.000Z,26.9
2022-09-29T09:40:42.000Z,26.2
2022-09-29T09:41:58.000Z,25.5
2022-09-29T09:43:14.000Z,24.9
2022-09-29T09:44:31.000Z,24.6
2022-09-29T09:45:47.000Z,24.5
2022-09-29T09:47:03.000Z,24.3
2022-09-29T09:48:18.000Z,24.1
2022-09-29T09:49:34.000Z,24.1
2022-09-29T09:50:51.000Z,24.1
2022-09-29T09:52:07.000Z,24.1
2022-09-29T09:53:34.654Z,24
2022-09-29T09:54:39.000Z,23.8
2022-09-29T09:55:55.000Z,23.4
2022-09-29T09:57:12.000Z,22.8
2022-09-29T09:58:28.000Z,22.8
2022-09-29T09:59:44.000Z,22.9
2022-09-29T10:00:59.000Z,23
2022-09-29T10:02:14.000Z,22.9
2022-09-29T10:03:31.000Z,22.8
2022-09-29T10:04:47.000Z,22.6
2022-09-29T10:06:03.000Z,22.3
2022-09-29T10:07:19.000Z,22
2022-09-29T10:08:35.000Z,21.9
2022-09-29T10:09:52.000Z,21.8
2022-09-29T10:11:08.000Z,22
2022-09-29T10:12:24.000Z,22.2
2022-09-29T10:13:40.000Z,22.6
2022-09-29T10:14:56.000Z,22.7
2022-09-29T10:16:13.000Z,22.7
2022-09-29T10:17:29.000Z,22.6
2022-09-29T10:18:44.000Z,22.6
2022-09-29T10:20:00.000Z,22.6
2022-09-29T10:21:16.000Z,22.5
2022-09-29T10:22:33.000Z,22.5
2022-09-29T10:23:49.000Z,22.5
2022-09-29T10:25:05.000Z,22.6
2022-09-29T10:26:21.000Z,22.4
2022-09-29T10:27:36.000Z,22.3
2022-09-29T10:28:52.000Z,22.2
2022-09-29T10:30:08.000Z,22.3
2022-09-29T10:31:36.554Z,22.4
2022-09-29T10:32:40.000Z,22.3
2022-09-29T10:33:56.000Z,22.1
2022-09-29T10:35:13.000Z,21.7
2022-09-29T10:36:29.000Z,21.6
2022-09-29T10:37:45.000Z,21.6
2022-09-29T10:39:01.000Z,21.7
2022-09-29T10:40:17.000Z,21.9
2022-09-29T10:41:34.000Z,22
2022-09-29T10:42:50.000Z,22.1
2022-09-29T10:44:06.000Z,22.1
2022-09-29T10:45:21.000Z,21.6
2022-09-29T10:46:37.000Z,21.3
2022-09-29T10:47:53.000Z,21.1
2022-09-29T10:49:10.000Z,21
2022-09-29T10:50:26.000Z,20.9
2022-09-29T10:51:42.000Z,20.6
2022-09-29T10:52:58.000Z,20.3
2022-09-29T10:54:13.000Z,20
2022-09-29T10:55:29.000Z,19.9
2022-09-29T10:56:45.000Z,19.8
2022-09-29T10:58:01.000Z,19.9
2022-09-29T10:59:17.000Z,20
2022-09-29T11:00:33.000Z,20.2
2022-09-29T11:01:50.000Z,20.5
2022-09-29T11:03:06.000Z,20.6
2022-09-29T11:04:22.000Z,20.7
2022-09-29T11:05:38.000Z,20.8
2022-09-29T11:06:54.000Z,20.8
2022-09-29T11:08:11.000Z,20.9
2022-09-29T11:09:27.000Z,20.8
2022-09-29T11:10:43.000Z,20.8
2022-09-29T11:11:58.000Z,20.8
2022-09-29T11:13:14.000Z,20.7
2022-09-29T11:14:31.000Z,20.6
2022-09-29T11:15:47.000Z,20.3
2022-09-29T11:17:03.000Z,20.1
2022-09-29T11:18:19.000Z,19.7
2022-09-29T11:19:35.000Z,19.4
2022-09-29T11:20:52.000Z,19.3
2022-09-29T11:22:08.000Z,19.3
2022-09-29T11:23:24.000Z,19.3
2022-09-29T11:24:40.000Z,19.3
2022-09-29T11:25:56.000Z,19.2
2022-09-29T11:27:13.000Z,19.2
2022-09-29T11:28:28.000Z,19.3
2022-09-29T11:29:44.000Z,19.4
2022-09-29T11:31:00.000Z,19.5
2022-09-29T11:32:16.000Z,19.3
2022-09-29T11:33:33.000Z,19.2
2022-09-29T11:34:49.000Z,19.2
2022-09-29T11:36:05.000Z,19.2
2022-09-29T11:37:21.000Z,19.3
2022-09-29T11:38:37.000Z,19.5
2022-09-29T11:39:53.000Z,19.2
2022-09-29T11:41:10.000Z,19.1
2022-09-29T11:42:26.000Z,19.2
2022-09-29T11:43:42.000Z,19.3
2022-09-29T11:44:57.000Z,19.5
2022-09-29T11:46:13.000Z,19.3
2022-09-29T11:47:30.000Z,19.2
2022-09-29T11:48:46.000Z,19.1
2022-09-29T11:50:02.000Z,19.2
2022-09-29T11:51:18.000Z,19.2
2022-09-29T11:52:34.000Z,19.1
2022-09-29T11:53:51.000Z,18.9
2022-09-29T11:55:07.000Z,18.8
2022-09-29T11:56:23.000Z,18.9
2022-09-29T11:57:39.000Z,18.9
2022-09-29T11:58:55.000Z,19
2022-09-29T12:00:12.166Z,19
2022-09-29T12:01:27.000Z,18.6
2022-09-29T12:02:43.000Z,18.6
2022-09-29T12:03:59.000Z,18.6
2022-09-29T12:05:15.000Z,18.7
2022-09-29T12:06:32.000Z,18.7
2022-09-29T12:07:48.000Z,18.8
2022-09-29T12:09:04.000Z,18.8
2022-09-29T12:10:20.000Z,18.8
2022-09-29T12:11:36.000Z,18.8
2022-09-29T12:12:53.000Z,18.8
2022-09-29T12:14:09.000Z,18.8
2022-09-29T12:15:25.000Z,18.9
2022-09-29T12:16:41.000Z,18.8
2022-09-29T12:17:56.000Z,18.9
2022-09-29T12:19:13.000Z,19
2022-09-29T12:20:29.000Z,19
2022-09-29T12:21:45.000Z,19
2022-09-29T12:23:01.000Z,18.9
2022-09-29T12:24:17.000Z,18.9
2022-09-29T12:25:34.000Z,18.9
2022-09-29T12:26:50.000Z,18.9
2022-09-29T12:28:06.000Z,18.9
2022-09-29T12:29:22.000Z,18.9
2022-09-29T12:30:38.000Z,18.7
2022-09-29T12:31:54.000Z,18.5
2022-09-29T12:34:10.225Z,18.3
2022-09-29T12:34:26.000Z,18.3
2022-09-29T12:35:42.000Z,18.4
2022-09-29T12:36:58.000Z,18.4
2022-09-29T12:38:17.019Z,18.3
2022-09-29T12:39:31.000Z,18.2
2022-09-29T12:40:47.000Z,18.1
2022-09-29T12:42:03.000Z,17.9
2022-09-29T12:43:19.000Z,17.9
2022-09-29T12:44:35.000Z,17.9
2022-09-29T12:45:52.000Z,18
2022-09-29T12:47:08.000Z,18
2022-09-29T12:48:24.000Z,17.8
2022-09-29T12:49:40.000Z,17.8
2022-09-29T12:50:55.000Z,17.9
2022-09-29T12:52:12.000Z,17.9
2022-09-29T12:53:28.000Z,17.9
2022-09-29T12:54:44.000Z,18
2022-09-29T12:56:00.000Z,18.1
2022-09-29T12:57:16.000Z,18.1
2022-09-29T12:58:33.000Z,18.1
2022-09-29T12:59:49.000Z,18.1
2022-09-29T13:01:05.000Z,18.1
2022-09-29T13:02:21.000Z,18
2022-09-29T13:03:37.000Z,17.9
2022-09-29T13:04:54.000Z,17.8
2022-09-29T13:06:10.000Z,17.8
2022-09-29T13:07:25.000Z,17.8
2022-09-29T13:08:41.000Z,17.8
2022-09-29T13:09:57.000Z,17.8
2022-09-29T13:11:14.000Z,17.9
2022-09-29T13:12:30.000Z,17.9
2022-09-29T13:13:46.000Z,17.9
2022-09-29T13:15:02.000Z,17.9
2022-09-29T13:16:24.889Z,17.9
2022-09-29T13:17:35.000Z,17.9
2022-09-29T13:18:51.000Z,17.9
2022-09-29T13:20:07.000Z,17.9
2022-09-29T13:21:23.000Z,17.9
2022-09-29T13:22:39.000Z,17.9
2022-09-29T13:23:55.000Z,17.8
2022-09-29T13:25:11.000Z,17.8
2022-09-29T13:26:27.000Z,17.8
2022-09-29T13:27:43.000Z,17.7
2022-09-29T13:28:59.000Z,17.7
2022-09-29T13:30:16.000Z,17.7
2022-09-29T13:31:32.000Z,17.7
2022-09-29T13:32:48.000Z,17.6
2022-09-29T13:34:04.000Z,17.6
2022-09-29T13:35:20.000Z,17.6
2022-09-29T13:36:36.000Z,17.7
2022-09-29T13:37:53.000Z,17.7
2022-09-29T13:39:09.000Z,17.7
2022-09-29T13:40:24.599Z,17.6
2022-09-29T13:41:40.000Z,17.6
2022-09-29T13:42:56.000Z,17.7
2022-09-29T13:44:14.204Z,17.8
2022-09-29T13:45:29.000Z,17.9
2022-09-29T13:46:45.000Z,17.9
2022-09-29T13:48:01.000Z,18
2022-09-29T13:49:17.000Z,18
2022-09-29T13:50:34.000Z,18.1
2022-09-29T13:51:50.000Z,18.1
2022-09-29T13:53:06.000Z,18.1
2022-09-29T13:54:22.000Z,18.2
2022-09-29T13:55:38.000Z,18.2
2022-09-29T13:56:54.000Z,18.2
2022-09-29T13:58:10.000Z,18.1
2022-09-29T13:59:26.000Z,18.1
2022-09-29T14:00:42.000Z,18.1
2022-09-29T14:01:58.000Z,18
2022-09-29T14:03:14.000Z,17.9
2022-09-29T14:04:30.000Z,17.9
2022-09-29T14:05:46.000Z,17.8
2022-09-29T14:07:02.000Z,17.8
2022-09-29T14:08:18.000Z,17.8
2022-09-29T14:09:35.000Z,17.8
2022-09-29T14:10:51.000Z,17.9
2022-09-29T14:12:07.000Z,17.9
2022-09-29T14:13:23.000Z,17.9
2022-09-29T14:14:39.000Z,17.8
2022-09-29T14:15:56.000Z,17.8
2022-09-29T14:17:12.000Z,17.8
2022-09-29T14:18:28.000Z,17.5
2022-09-29T14:19:43.000Z,17.4
2022-09-29T14:20:59.000Z,17.4
2022-09-29T14:22:16.000Z,17.4
2022-09-29T14:23:32.000Z,17.4
2022-09-29T14:24:48.000Z,17.5
2022-09-29T14:26:04.000Z,17.6
2022-09-29T14:27:20.000Z,17.7
2022-09-29T14:28:37.000Z,17.7
2022-09-29T14:29:53.000Z,17.8
2022-09-29T14:31:09.000Z,17.8
2022-09-29T14:32:25.000Z,17.7
2022-09-29T14:33:41.000Z,17.7
2022-09-29T14:34:58.000Z,17.6
2022-09-29T14:36:13.000Z,17.6
2022-09-29T14:37:29.000Z,17.6
2022-09-29T14:38:45.000Z,17.6
2022-09-29T14:40:01.000Z,17.6
2022-09-29T14:41:18.000Z,17.6
2022-09-29T14:42:34.000Z,17.6
2022-09-29T14:43:50.000Z,17.6
2022-09-29T14:45:06.000Z,17.6
2022-09-29T14:46:22.000Z,17.6
2022-09-29T14:47:39.000Z,17.6
2022-09-29T14:48:55.000Z,17.5
2022-09-29T14:50:11.000Z,17.5
2022-09-29T14:51:27.000Z,17.5
2022-09-29T14:52:42.000Z,17.6
2022-09-29T14:53:59.000Z,17.6
2022-09-29T14:55:15.000Z,17.6
2022-09-29T14:56:31.000Z,17.5
2022-09-29T14:57:47.000Z,17.5
2022-09-29T14:59:03.000Z,17.4
2022-09-29T15:00:19.000Z,17.3
2022-09-29T15:01:36.000Z,17.2
2022-09-29T15:02:52.000Z,17.1
2022-09-29T15:04:08.000Z,17.2
2022-09-29T15:05:24.000Z,17.2
2022-09-29T15:06:40.000Z,17.2
2022-09-29T15:07:57.000Z,17.2
2022-09-29T15:09:12.000Z,17.2
2022-09-29T15:10:28.000Z,17.1
2022-09-29T15:11:44.000Z,17
2022-09-29T15:13:00.000Z,17.1
2022-09-29T15:14:17.000Z,17.1
2022-09-29T15:15:33.000Z,17.1
2022-09-29T15:16:49.000Z,17.1
2022-09-29T15:18:05.000Z,17.1
2022-09-29T15:19:21.000Z,17.1
2022-09-29T15:20:38.000Z,17.1
2022-09-29T15:21:54.000Z,16.9
2022-09-29T15:24:08.496Z,16.8
2022-09-29T15:24:26.000Z,16.8
2022-09-29T15:25:41.000Z,16.8
2022-09-29T15:26:58.000Z,16.9
2022-09-29T15:28:14.000Z,16.9
2022-09-29T15:29:30.000Z,16.9
2022-09-29T15:30:46.000Z,17
2022-09-29T15:32:02.000Z,17
2022-09-29T15:33:19.000Z,17
2022-09-29T15:34:35.000Z,17
2022-09-29T15:36:30.459Z,17
2022-09-29T15:37:07.000Z,17
2022-09-29T15:38:23.000Z,17
2022-09-29T15:39:40.000Z,17
2022-09-29T15:40:56.000Z,17
2022-09-29T15:42:11.000Z,17
2022-09-29T15:43:27.000Z,17.1
2022-09-29T15:44:43.000Z,17
2022-09-29T15:46:00.000Z,17
2022-09-29T15:47:16.000Z,16.9
2022-09-29T15:48:32.000Z,16.9
2022-09-29T15:49:48.000Z,16.9
2022-09-29T15:51:04.000Z,16.8
2022-09-29T15:52:21.000Z,16.8
2022-09-29T15:53:37.000Z,16.8
2022-09-29T15:54:53.000Z,16.8
2022-09-29T15:56:09.000Z,16.8
2022-09-29T15:57:25.000Z,16.8
2022-09-29T15:58:41.000Z,16.8
2022-09-29T15:59:57.000Z,16.8
2022-09-29T16:01:14.388Z,16.8
2022-09-29T16:02:29.000Z,16.8
2022-09-29T16:03:45.000Z,16.8
2022-09-29T16:05:02.000Z,16.8
2022-09-29T16:06:18.000Z,16.8
2022-09-29T16:07:34.000Z,16.8
2022-09-29T16:08:50.000Z,16.7
2022-09-29T16:10:06.000Z,16.7
2022-09-29T16:11:22.000Z,16.6
2022-09-29T16:12:39.000Z,16.6
2022-09-29T16:13:55.000Z,16.6
2022-09-29T16:15:10.000Z,16.6
2022-09-29T16:16:26.000Z,16.6
2022-09-29T16:17:42.000Z,16.5
2022-09-29T16:18:59.000Z,16.5
2022-09-29T16:20:15.000Z,16.5
2022-09-29T16:21:31.000Z,16.5
2022-09-29T16:22:47.000Z,16.5
2022-09-29T16:24:03.000Z,16.5
2022-09-29T16:25:20.000Z,16.5
2022-09-29T16:26:36.000Z,16.5
2022-09-29T16:27:52.000Z,16.5
2022-09-29T16:29:08.000Z,16.5
2022-09-29T16:30:24.000Z,16.5
2022-09-29T16:31:40.000Z,16.5
2022-09-29T16:32:56.000Z,16.4
2022-09-29T16:34:12.000Z,16.4
2022-09-29T16:35:28.000Z,16.5
2022-09-29T16:36:44.000Z,16.4
2022-09-29T16:38:01.000Z,16.4
2022-09-29T16:39:22.265Z,16.4
2022-09-29T16:40:33.000Z,16.4
2022-09-29T16:41:49.000Z,16.4
2022-09-29T16:43:05.000Z,16.4
2022-09-29T16:44:32.044Z,16.4
2022-09-29T16:45:38.000Z,16.4
2022-09-29T16:46:54.000Z,16.3
2022-09-29T16:48:09.000Z,16.3
2022-09-29T16:49:25.000Z,16.3
2022-09-29T16:50:42.000Z,16.2
2022-09-29T16:51:58.000Z,16.2
2022-09-29T16:53:14.000Z,16.2
2022-09-29T16:54:30.000Z,16.2
2022-09-29T16:55:46.000Z,16.1
2022-09-29T16:57:03.000Z,16.1
2022-09-29T16:58:19.000Z,16.1
2022-09-29T16:59:35.000Z,16.1
2022-09-29T17:00:51.000Z,16.1
2022-09-29T17:02:07.000Z,16
2022-09-29T17:03:24.000Z,16
2022-09-29T17:04:39.000Z,16
2022-09-29T17:05:55.000Z,16
2022-09-29T17:07:11.000Z,16
2022-09-29T17:08:27.000Z,16
2022-09-29T17:09:44.000Z,15.9
2022-09-29T17:11:00.000Z,15.9